sensor_id;sensor_type;location;lat;lon;timestamp;pressure;altitude;pressure_sealevel;temperature;humidity
40205;BME280;26963;42.666;23.366;2023-03-03T00:01:02;95008.25;;;5.49;68.18
40205;BME280;26963;42.666;23.366;2023-03-03T00:03:27;94939.69;;;5.25;67.72
40205;BME280;26963;42.666;23.366;2023-03-03T00:05:53;94994.47;;;5.57;66.73
40205;BME280;26963;42.666;23.366;2023-03-03T00:08:19;94963.00;;;5.23;67.02
40205;BME280;26963;42.666;23.366;2023-03-03T00:10:46;94977.94;;;5.39;67.61
40205;BME280;26963;42.666;23.366;2023-03-03T00:13:25;94971.03;;;5.33;67.92
40205;BME280;26963;42.666;23.366;2023-03-03T00:15:51;94927.38;;;5.03;68.46
40205;BME280;26963;42.666;23.366;2023-03-03T00:18:20;94992.38;;;5.59;68.19
40205;BME280;26963;42.666;23.366;2023-03-03T00:20:55;94980.91;;;5.53;67.00
40205;BME280;26963;42.666;23.366;2023-03-03T00:23:38;94866.25;;;4.78;67.13
40205;BME280;26963;42.666;23.366;2023-03-03T00:26:33;94987.53;;;5.46;67.48
40205;BME280;26963;42.666;23.366;2023-03-03T00:29:01;94917.31;;;5.05;67.98
40205;BME280;26963;42.666;23.366;2023-03-03T00:31:34;94846.28;;;4.65;68.32
40205;BME280;26963;42.666;23.366;2023-03-03T00:36:41;94949.31;;;5.42;66.79
40205;BME280;26963;42.666;23.366;2023-03-03T00:41:57;94989.00;;;5.74;67.40
40205;BME280;26963;42.666;23.366;2023-03-03T00:52:46;94918.03;;;5.49;66.91
40205;BME280;26963;42.666;23.366;2023-03-03T00:55:16;94931.38;;;5.75;66.67
40205;BME280;26963;42.666;23.366;2023-03-03T00:57:41;94936.69;;;5.80;66.42
40205;BME280;26963;42.666;23.366;2023-03-03T01:00:07;94953.19;;;5.92;66.36
40205;BME280;26963;42.666;23.366;2023-03-03T01:02:33;94875.59;;;5.59;66.22
40205;BME280;26963;42.666;23.366;2023-03-03T01:04:58;94924.78;;;5.98;65.96
40205;BME280;26963;42.666;23.366;2023-03-03T01:07:24;94939.66;;;5.94;65.81
40205;BME280;26963;42.666;23.366;2023-03-03T01:09:50;94936.19;;;5.88;65.96
40205;BME280;26963;42.666;23.366;2023-03-03T01:12:15;94933.25;;;5.79;66.66
40205;BME280;26963;42.666;23.366;2023-03-03T01:14:41;94926.84;;;5.70;66.93
40205;BME280;26963;42.666;23.366;2023-03-03T01:17:07;94832.69;;;5.04;67.06
40205;BME280;26963;42.666;23.366;2023-03-03T01:19:33;94816.97;;;4.87;67.31
40205;BME280;26963;42.666;23.366;2023-03-03T01:21:58;94862.19;;;5.23;67.16
40205;BME280;26963;42.666;23.366;2023-03-03T01:24:24;94939.03;;;5.66;67.11
40205;BME280;26963;42.666;23.366;2023-03-03T01:26:49;94934.00;;;5.69;66.93
40205;BME280;26963;42.666;23.366;2023-03-03T01:29:15;94908.22;;;5.54;67.19
40205;BME280;26963;42.666;23.366;2023-03-03T01:31:40;94934.56;;;5.71;67.36
40205;BME280;26963;42.666;23.366;2023-03-03T01:34:06;94894.91;;;5.44;67.71
40205;BME280;26963;42.666;23.366;2023-03-03T01:36:33;94902.88;;;5.44;67.51
40205;BME280;26963;42.666;23.366;2023-03-03T01:38:59;94877.59;;;5.21;68.31
40205;BME280;26963;42.666;23.366;2023-03-03T01:41:29;94923.88;;;5.56;67.86
40205;BME280;26963;42.666;23.366;2023-03-03T01:43:58;94900.22;;;5.44;67.92
40205;BME280;26963;42.666;23.366;2023-03-03T01:48:57;94903.09;;;5.32;68.66
40205;BME280;26963;42.666;23.366;2023-03-03T01:51:49;94904.13;;;5.26;68.87
40205;BME280;26963;42.666;23.366;2023-03-03T01:54:45;94894.50;;;5.10;69.11
40205;BME280;26963;42.666;23.366;2023-03-03T01:57:16;94881.72;;;4.96;69.33
40205;BME280;26963;42.666;23.366;2023-03-03T01:59:48;94913.69;;;5.22;69.25
40205;BME280;26963;42.666;23.366;2023-03-03T02:02:15;94904.69;;;5.28;68.90
40205;BME280;26963;42.666;23.366;2023-03-03T02:04:41;94804.13;;;4.58;68.63
40205;BME280;26963;42.666;23.366;2023-03-03T02:07:11;94905.75;;;5.27;68.61
40205;BME280;26963;42.666;23.366;2023-03-03T02:12:06;94914.81;;;5.47;67.91
40205;BME280;26963;42.666;23.366;2023-03-03T02:14:33;94907.41;;;5.49;67.80
40205;BME280;26963;42.666;23.366;2023-03-03T02:16:59;94918.06;;;5.59;67.75
40205;BME280;26963;42.666;23.366;2023-03-03T02:22:37;94902.72;;;5.77;66.60
40205;BME280;26963;42.666;23.366;2023-03-03T02:25:07;94897.91;;;5.74;66.43
40205;BME280;26963;42.666;23.366;2023-03-03T02:27:36;94902.16;;;5.75;66.63
40205;BME280;26963;42.666;23.366;2023-03-03T02:30:14;94894.16;;;5.59;66.61
40205;BME280;26963;42.666;23.366;2023-03-03T02:32:40;94882.72;;;5.53;66.73
40205;BME280;26963;42.666;23.366;2023-03-03T02:35:31;94859.09;;;5.42;66.69
40205;BME280;26963;42.666;23.366;2023-03-03T02:38:03;94884.31;;;5.54;66.53
40205;BME280;26963;42.666;23.366;2023-03-03T02:40:37;94906.16;;;5.72;66.67
40205;BME280;26963;42.666;23.366;2023-03-03T02:43:05;94830.13;;;5.25;66.56
40205;BME280;26963;42.666;23.366;2023-03-03T02:45:31;94888.88;;;5.59;66.88
40205;BME280;26963;42.666;23.366;2023-03-03T02:47:57;94903.22;;;5.74;66.67
40205;BME280;26963;42.666;23.366;2023-03-03T02:50:22;94888.88;;;5.64;66.92
40205;BME280;26963;42.666;23.366;2023-03-03T02:52:48;94917.31;;;5.69;66.94
40205;BME280;26963;42.666;23.366;2023-03-03T02:55:13;94897.91;;;5.68;66.97
40205;BME280;26963;42.666;23.366;2023-03-03T02:57:39;94894.75;;;5.71;66.78
40205;BME280;26963;42.666;23.366;2023-03-03T03:00:05;94901.38;;;5.74;66.92
40205;BME280;26963;42.666;23.366;2023-03-03T03:02:31;94899.22;;;5.71;66.80
40205;BME280;26963;42.666;23.366;2023-03-03T03:04:56;94895.78;;;5.65;67.00
40205;BME280;26963;42.666;23.366;2023-03-03T03:07:22;94885.13;;;5.50;66.85
40205;BME280;26963;42.666;23.366;2023-03-03T03:09:47;94830.34;;;5.13;67.17
40205;BME280;26963;42.666;23.366;2023-03-03T03:12:14;94922.03;;;5.62;67.26
40205;BME280;26963;42.666;23.366;2023-03-03T03:14:40;94855.38;;;5.43;66.96
40205;BME280;26963;42.666;23.366;2023-03-03T03:17:05;94894.75;;;5.71;66.91
40205;BME280;26963;42.666;23.366;2023-03-03T03:19:31;94883.84;;;5.68;67.05
40205;BME280;26963;42.666;23.366;2023-03-03T03:21:56;94892.59;;;5.74;66.89
40205;BME280;26963;42.666;23.366;2023-03-03T03:24:22;94864.19;;;5.59;66.60
40205;BME280;26963;42.666;23.366;2023-03-03T03:26:47;94894.19;;;5.64;66.84
40205;BME280;26963;42.666;23.366;2023-03-03T03:29:13;94876.66;;;5.58;67.13
40205;BME280;26963;42.666;23.366;2023-03-03T03:31:38;94824.81;;;5.19;67.27
40205;BME280;26963;42.666;23.366;2023-03-03T03:34:04;94878.22;;;5.44;67.51
40205;BME280;26963;42.666;23.366;2023-03-03T03:36:29;94885.34;;;5.43;67.86
40205;BME280;26963;42.666;23.366;2023-03-03T03:38:55;94837.78;;;5.16;67.97
40205;BME280;26963;42.666;23.366;2023-03-03T03:41:20;94872.31;;;5.31;68.19
40205;BME280;26963;42.666;23.366;2023-03-03T03:43:46;94890.13;;;5.41;68.38
40205;BME280;26963;42.666;23.366;2023-03-03T03:46:11;94875.75;;;5.32;68.50
40205;BME280;26963;42.666;23.366;2023-03-03T03:48:37;94873.34;;;5.25;68.68
40205;BME280;26963;42.666;23.366;2023-03-03T03:51:03;94861.69;;;5.21;69.23
40205;BME280;26963;42.666;23.366;2023-03-03T03:53:28;94880.31;;;5.42;69.30
40205;BME280;26963;42.666;23.366;2023-03-03T03:55:55;94864.91;;;5.28;69.70
40205;BME280;26963;42.666;23.366;2023-03-03T03:58:20;94868.66;;;5.48;69.70
40205;BME280;26963;42.666;23.366;2023-03-03T04:00:46;94812.81;;;5.12;69.82
40205;BME280;26963;42.666;23.366;2023-03-03T04:03:12;94883.03;;;5.62;70.16
40205;BME280;26963;42.666;23.366;2023-03-03T04:05:41;94867.38;;;5.61;70.17
40205;BME280;26963;42.666;23.366;2023-03-03T04:08:07;94848.50;;;5.62;69.83
40205;BME280;26963;42.666;23.366;2023-03-03T04:10:33;94846.41;;;5.64;69.08
40205;BME280;26963;42.666;23.366;2023-03-03T04:12:58;94775.69;;;5.12;69.02
40205;BME280;26963;42.666;23.366;2023-03-03T04:15:24;94759.75;;;5.01;69.45
40205;BME280;26963;42.666;23.366;2023-03-03T04:17:49;94824.63;;;5.57;69.68
40205;BME280;26963;42.666;23.366;2023-03-03T04:20:15;94764.03;;;5.13;69.35
40205;BME280;26963;42.666;23.366;2023-03-03T04:22:42;94810.28;;;5.48;69.41
40205;BME280;26963;42.666;23.366;2023-03-03T04:25:08;94854.66;;;5.83;69.74
40205;BME280;26963;42.666;23.366;2023-03-03T04:27:37;94849.09;;;5.90;69.63
40205;BME280;26963;42.666;23.366;2023-03-03T04:30:04;94863.97;;;5.96;69.57
40205;BME280;26963;42.666;23.366;2023-03-03T04:32:31;94788.00;;;5.44;69.86
40205;BME280;26963;42.666;23.366;2023-03-03T04:34:58;94863.50;;;5.99;69.36
40205;BME280;26963;42.666;23.366;2023-03-03T04:37:24;94810.84;;;5.65;69.04
40205;BME280;26963;42.666;23.366;2023-03-03T04:39:50;94799.69;;;5.58;69.05
40205;BME280;26963;42.666;23.366;2023-03-03T04:42:15;94812.69;;;5.70;69.48
40205;BME280;26963;42.666;23.366;2023-03-03T04:44:41;94856.00;;;5.96;69.46
40205;BME280;26963;42.666;23.366;2023-03-03T04:47:06;94845.38;;;5.96;69.48
40205;BME280;26963;42.666;23.366;2023-03-03T04:49:32;94775.25;;;5.56;69.18
40205;BME280;26963;42.666;23.366;2023-03-03T04:52:07;94855.78;;;6.08;69.10
40205;BME280;26963;42.666;23.366;2023-03-03T04:54:35;94852.31;;;6.02;67.78
40205;BME280;26963;42.666;23.366;2023-03-03T04:57:01;94846.97;;;5.87;68.04
40205;BME280;26963;42.666;23.366;2023-03-03T04:59:26;94876.19;;;5.97;68.20
40205;BME280;26963;42.666;23.366;2023-03-03T05:01:52;94852.78;;;5.79;68.96
40205;BME280;26963;42.666;23.366;2023-03-03T05:04:17;94749.22;;;5.22;68.82
40205;BME280;26963;42.666;23.366;2023-03-03T05:06:43;94863.69;;;5.98;68.88
40205;BME280;26963;42.666;23.366;2023-03-03T05:09:08;94647.25;;;4.56;68.65
40205;BME280;26963;42.666;23.366;2023-03-03T05:11:34;94851.22;;;5.88;68.25
40205;BME280;26963;42.666;23.366;2023-03-03T05:14:00;94869.81;;;5.93;68.61
40205;BME280;26963;42.666;23.366;2023-03-03T05:16:27;94872.50;;;5.98;68.73
40205;BME280;26963;42.666;23.366;2023-03-03T05:18:53;94873.06;;;6.06;68.69
40205;BME280;26963;42.666;23.366;2023-03-03T05:21:18;94851.75;;;5.90;68.34
40205;BME280;26963;42.666;23.366;2023-03-03T05:23:44;94844.31;;;5.77;68.51
40205;BME280;26963;42.666;23.366;2023-03-03T05:26:09;94874.84;;;5.90;68.43
40205;BME280;26963;42.666;23.366;2023-03-03T05:28:38;94859.19;;;5.78;68.48
40205;BME280;26963;42.666;23.366;2023-03-03T05:31:03;94886.81;;;5.92;69.28
40205;BME280;26963;42.666;23.366;2023-03-03T05:33:29;94883.38;;;5.97;68.75
40205;BME280;26963;42.666;23.366;2023-03-03T05:35:55;94885.19;;;5.86;68.48
40205;BME280;26963;42.666;23.366;2023-03-03T05:38:23;94874.06;;;5.94;68.83
40205;BME280;26963;42.666;23.366;2023-03-03T05:40:48;94835.25;;;5.67;68.15
40205;BME280;26963;42.666;23.366;2023-03-03T05:43:14;94900.13;;;6.02;68.21
40205;BME280;26963;42.666;23.366;2023-03-03T05:45:39;94872.50;;;5.98;68.24
40205;BME280;26963;42.666;23.366;2023-03-03T05:48:05;94808.69;;;5.52;68.02
40205;BME280;26963;42.666;23.366;2023-03-03T05:50:31;94880.44;;;5.93;68.32
40205;BME280;26963;42.666;23.366;2023-03-03T05:52:57;94884.75;;;6.10;68.38
40205;BME280;26963;42.666;23.366;2023-03-03T05:55:23;94871.19;;;6.06;68.05
40205;BME280;26963;42.666;23.366;2023-03-03T05:57:48;94775.78;;;5.53;68.02
40205;BME280;26963;42.666;23.366;2023-03-03T06:00:15;94784.81;;;5.52;67.76
40205;BME280;26963;42.666;23.366;2023-03-03T06:02:41;94854.47;;;6.06;67.84
40205;BME280;26963;42.666;23.366;2023-03-03T06:05:08;94876.25;;;6.28;67.65
40205;BME280;26963;42.666;23.366;2023-03-03T06:07:33;94892.97;;;6.39;67.86
40205;BME280;26963;42.666;23.366;2023-03-03T06:09:59;94855.53;;;6.10;68.27
40205;BME280;26963;42.666;23.366;2023-03-03T06:12:25;94856.31;;;6.10;67.91
40205;BME280;26963;42.666;23.366;2023-03-03T06:14:50;94875.16;;;6.19;67.78
40205;BME280;26963;42.666;23.366;2023-03-03T06:17:16;94814.56;;;5.90;68.25
40205;BME280;26963;42.666;23.366;2023-03-03T06:19:41;94899.09;;;6.29;68.33
40205;BME280;26963;42.666;23.366;2023-03-03T06:22:07;94889.53;;;6.28;67.92
40205;BME280;26963;42.666;23.366;2023-03-03T06:24:34;94863.50;;;6.04;68.31
40205;BME280;26963;42.666;23.366;2023-03-03T06:27:00;94854.97;;;6.08;68.42
40205;BME280;26963;42.666;23.366;2023-03-03T06:29:26;94899.91;;;6.30;67.40
40205;BME280;26963;42.666;23.366;2023-03-03T06:31:52;94886.34;;;6.31;67.33
40205;BME280;26963;42.666;23.366;2023-03-03T06:34:18;94844.34;;;6.08;67.58
40205;BME280;26963;42.666;23.366;2023-03-03T06:36:43;94901.22;;;6.48;68.31
40205;BME280;26963;42.666;23.366;2023-03-03T06:39:09;94883.66;;;6.47;67.92
40205;BME280;26963;42.666;23.366;2023-03-03T06:41:35;94797.31;;;5.87;67.61
40205;BME280;26963;42.666;23.366;2023-03-03T06:44:01;94831.34;;;6.16;67.55
40205;BME280;26963;42.666;23.366;2023-03-03T06:46:26;94880.50;;;6.50;67.45
40205;BME280;26963;42.666;23.366;2023-03-03T06:48:52;94910.22;;;6.67;66.78
40205;BME280;26963;42.666;23.366;2023-03-03T06:51:28;94912.91;;;6.73;66.21
40205;BME280;26963;42.666;23.366;2023-03-03T06:53:56;94895.88;;;6.68;66.24
40205;BME280;26963;42.666;23.366;2023-03-03T06:56:25;94889.50;;;6.75;66.22
40205;BME280;26963;42.666;23.366;2023-03-03T06:58:59;94908.63;;;6.87;66.87
40205;BME280;26963;42.666;23.366;2023-03-03T07:01:31;94893.19;;;6.94;66.48
40205;BME280;26963;42.666;23.366;2023-03-03T07:03:58;94914.72;;;7.03;66.12
40205;BME280;26963;42.666;23.366;2023-03-03T07:06:25;94896.88;;;7.04;66.16
40205;BME280;26963;42.666;23.366;2023-03-03T07:08:53;94886.25;;;7.04;65.18
40205;BME280;26963;42.666;23.366;2023-03-03T07:11:21;94903.75;;;7.25;65.12
40205;BME280;26963;42.666;23.366;2023-03-03T07:13:49;94899.47;;;7.24;65.44
40205;BME280;26963;42.666;23.366;2023-03-03T07:16:16;94795.13;;;6.62;64.71
40205;BME280;26963;42.666;23.366;2023-03-03T07:18:58;94903.22;;;7.18;65.34
40205;BME280;26963;42.666;23.366;2023-03-03T07:21:35;94894.22;;;7.09;66.08
40205;BME280;26963;42.666;23.366;2023-03-03T07:26:41;94855.47;;;6.56;66.50
40205;BME280;26963;42.666;23.366;2023-03-03T07:29:26;94834.25;;;6.35;66.14
40205;BME280;26963;42.666;23.366;2023-03-03T07:31:57;94886.56;;;6.71;65.92
40205;BME280;26963;42.666;23.366;2023-03-03T07:34:34;94901.16;;;6.84;64.47
40205;BME280;26963;42.666;23.366;2023-03-03T07:37:03;94903.34;;;6.61;66.41
40205;BME280;26963;42.666;23.366;2023-03-03T07:39:34;94841.19;;;6.26;66.31
40205;BME280;26963;42.666;23.366;2023-03-03T07:42:21;94908.13;;;6.64;66.59
40205;BME280;26963;42.666;23.366;2023-03-03T07:44:58;94878.34;;;6.47;67.04
40205;BME280;26963;42.666;23.366;2023-03-03T07:47:26;94902.53;;;6.61;66.72
40205;BME280;26963;42.666;23.366;2023-03-03T07:49:55;94737.03;;;5.67;66.78
40205;BME280;26963;42.666;23.366;2023-03-03T07:54:55;94897.44;;;6.90;65.62
40205;BME280;26963;42.666;23.366;2023-03-03T07:57:35;94895.34;;;6.82;65.94
40205;BME280;26963;42.666;23.366;2023-03-03T08:03:02;94895.34;;;6.82;66.96
40205;BME280;26963;42.666;23.366;2023-03-03T08:08:13;94888.13;;;6.88;65.80
40205;BME280;26963;42.666;23.366;2023-03-03T08:10:52;94846.44;;;6.57;65.53
40205;BME280;26963;42.666;23.366;2023-03-03T08:13:36;94892.13;;;6.80;66.28
40205;BME280;26963;42.666;23.366;2023-03-03T08:18:40;94869.28;;;6.68;66.91
40205;BME280;26963;42.666;23.366;2023-03-03T08:21:30;94868.75;;;6.82;66.13
40205;BME280;26963;42.666;23.366;2023-03-03T08:23:58;94866.34;;;6.85;66.50
40205;BME280;26963;42.666;23.366;2023-03-03T08:26:25;94878.25;;;7.04;66.44
40205;BME280;26963;42.666;23.366;2023-03-03T08:28:54;94871.34;;;7.02;65.53
40205;BME280;26963;42.666;23.366;2023-03-03T08:31:20;94830.47;;;6.67;65.35
40205;BME280;26963;42.666;23.366;2023-03-03T08:33:45;94883.31;;;7.05;66.03
40205;BME280;26963;42.666;23.366;2023-03-03T08:36:11;94871.88;;;7.05;66.15
40205;BME280;26963;42.666;23.366;2023-03-03T08:38:37;94867.59;;;7.09;65.64
40205;BME280;26963;42.666;23.366;2023-03-03T08:41:04;94875.56;;;7.14;65.29
40205;BME280;26963;42.666;23.366;2023-03-03T08:43:30;94828.84;;;6.82;64.83
40205;BME280;26963;42.666;23.366;2023-03-03T08:45:58;94872.94;;;7.09;65.46
40205;BME280;26963;42.666;23.366;2023-03-03T08:48:24;94875.03;;;7.12;64.99
40205;BME280;26963;42.666;23.366;2023-03-03T08:50:50;94870.28;;;7.04;64.22
40205;BME280;26963;42.666;23.366;2023-03-03T08:53:17;94867.03;;;7.12;65.71
40205;BME280;26963;42.666;23.366;2023-03-03T08:55:43;94821.88;;;7.01;64.86
40205;BME280;26963;42.666;23.366;2023-03-03T08:58:09;94818.91;;;7.13;64.50
40205;BME280;26963;42.666;23.366;2023-03-03T09:00:34;94828.13;;;7.31;64.41
40205;BME280;26963;42.666;23.366;2023-03-03T09:03:00;94861.31;;;7.49;64.66
40205;BME280;26963;42.666;23.366;2023-03-03T09:05:26;94882.00;;;7.68;64.51
40205;BME280;26963;42.666;23.366;2023-03-03T09:07:52;94888.63;;;7.71;65.04
40205;BME280;26963;42.666;23.366;2023-03-03T09:10:21;94869.75;;;7.67;63.61
40205;BME280;26963;42.666;23.366;2023-03-03T09:12:52;94854.06;;;7.65;63.66
40205;BME280;26963;42.666;23.366;2023-03-03T09:15:28;94876.88;;;7.77;62.74
40205;BME280;26963;42.666;23.366;2023-03-03T09:17:57;94874.31;;;7.61;63.61
40205;BME280;26963;42.666;23.366;2023-03-03T09:20:31;94871.13;;;7.59;62.67
40205;BME280;26963;42.666;23.366;2023-03-03T09:22:59;94871.69;;;7.51;63.44
40205;BME280;26963;42.666;23.366;2023-03-03T09:25:41;94712.53;;;6.43;64.01
40205;BME280;26963;42.666;23.366;2023-03-03T09:28:28;94888.94;;;7.64;63.53
40205;BME280;26963;42.666;23.366;2023-03-03T09:30:57;94858.34;;;7.61;63.84
40205;BME280;26963;42.666;23.366;2023-03-03T09:36:25;94864.13;;;7.74;63.99
40205;BME280;26963;42.666;23.366;2023-03-03T09:38:52;94879.53;;;7.82;62.93
40205;BME280;26963;42.666;23.366;2023-03-03T09:41:54;94839.16;;;7.59;62.67
40205;BME280;26963;42.666;23.366;2023-03-03T09:53:01;94877.09;;;8.25;63.86
40205;BME280;26963;42.666;23.366;2023-03-03T09:55:50;94870.56;;;8.42;62.98
40205;BME280;26963;42.666;23.366;2023-03-03T10:06:48;94864.53;;;8.65;61.61
40205;BME280;26963;42.666;23.366;2023-03-03T10:12:19;94869.13;;;8.84;61.44
40205;BME280;26963;42.666;23.366;2023-03-03T10:20:16;94867.94;;;9.01;59.66
40205;BME280;26963;42.666;23.366;2023-03-03T10:23:12;94855.13;;;8.97;59.54
40205;BME280;26963;42.666;23.366;2023-03-03T10:25:42;94796.25;;;8.64;59.73
40205;BME280;26963;42.666;23.366;2023-03-03T10:33:45;94835.38;;;8.98;58.69
40205;BME280;26963;42.666;23.366;2023-03-03T10:41:52;94837.88;;;9.14;59.09
40205;BME280;26963;42.666;23.366;2023-03-03T10:47:55;94847.94;;;9.22;60.02
40205;BME280;26963;42.666;23.366;2023-03-03T10:53:32;94773.16;;;8.79;59.53
40205;BME280;26963;42.666;23.366;2023-03-03T10:58:59;94834.00;;;9.25;60.16
40205;BME280;26963;42.666;23.366;2023-03-03T11:01:48;94835.59;;;9.26;60.34
40205;BME280;26963;42.666;23.366;2023-03-03T11:12:43;94811.78;;;9.11;59.26
40205;BME280;26963;42.666;23.366;2023-03-03T11:15:41;94823.56;;;9.29;59.11
40205;BME280;26963;42.666;23.366;2023-03-03T11:23:34;94809.13;;;9.30;59.92
40205;BME280;26963;42.666;23.366;2023-03-03T11:36:55;94752.22;;;8.91;60.69
40205;BME280;26963;42.666;23.366;2023-03-03T11:39:25;94805.16;;;9.27;61.43
40205;BME280;26963;42.666;23.366;2023-03-03T11:42:04;94772.00;;;9.09;60.75
40205;BME280;26963;42.666;23.366;2023-03-03T11:44:46;94690.78;;;8.53;61.04
40205;BME280;26963;42.666;23.366;2023-03-03T11:49:53;94792.38;;;9.24;61.54
40205;BME280;26963;42.666;23.366;2023-03-03T11:55:36;94801.34;;;9.34;61.80
40205;BME280;26963;42.666;23.366;2023-03-03T11:58:13;94749.41;;;9.02;60.81
40205;BME280;26963;42.666;23.366;2023-03-03T12:03:29;94772.03;;;9.28;60.29
40205;BME280;26963;42.666;23.366;2023-03-03T12:15:08;94781.47;;;9.40;60.38
40205;BME280;26963;42.666;23.366;2023-03-03T12:19:38;94792.31;;;9.29;59.95
40205;BME280;26963;42.666;23.366;2023-03-03T12:22:30;94789.44;;;9.45;61.07
40205;BME280;26963;42.666;23.366;2023-03-03T12:30:36;94792.13;;;9.45;59.85
40205;BME280;26963;42.666;23.366;2023-03-03T12:38:34;94809.31;;;9.58;59.95
40205;BME280;26963;42.666;23.366;2023-03-03T12:41:14;94690.84;;;8.91;60.43
40205;BME280;26963;42.666;23.366;2023-03-03T12:46:50;94797.81;;;9.57;60.35
40205;BME280;26963;42.666;23.366;2023-03-03T12:49:19;94791.25;;;9.50;60.58
40205;BME280;26963;42.666;23.366;2023-03-03T13:02:29;94800.75;;;9.37;62.34
40205;BME280;26963;42.666;23.366;2023-03-03T13:05:40;94770.91;;;9.10;62.58
40205;BME280;26963;42.666;23.366;2023-03-03T13:13:55;94740.38;;;8.54;63.43
40205;BME280;26963;42.666;23.366;2023-03-03T13:16:33;94778.38;;;8.65;64.13
40205;BME280;26963;42.666;23.366;2023-03-03T13:19:17;94779.69;;;8.68;65.01
40205;BME280;26963;42.666;23.366;2023-03-03T13:21:54;94767.50;;;8.61;65.71
40205;BME280;26963;42.666;23.366;2023-03-03T13:29:58;94788.69;;;9.20;63.76
40205;BME280;26963;42.666;23.366;2023-03-03T13:32:37;94786.88;;;9.35;63.77
40205;BME280;26963;42.666;23.366;2023-03-03T13:35:17;94790.00;;;9.42;62.68
40205;BME280;26963;42.666;23.366;2023-03-03T13:37:52;94766.56;;;9.39;62.64
40205;BME280;26963;42.666;23.366;2023-03-03T13:40:23;94732.72;;;9.15;61.69
40205;BME280;26963;42.666;23.366;2023-03-03T13:48:26;94782.91;;;9.32;62.86
40205;BME280;26963;42.666;23.366;2023-03-03T13:50:56;94787.78;;;9.30;63.03
40205;BME280;26963;42.666;23.366;2023-03-03T13:53:44;94793.13;;;9.30;63.38
40205;BME280;26963;42.666;23.366;2023-03-03T13:56:17;94779.47;;;9.32;63.43
40205;BME280;26963;42.666;23.366;2023-03-03T14:05:02;94705.38;;;8.80;62.87
40205;BME280;26963;42.666;23.366;2023-03-03T14:07:38;94741.47;;;8.96;62.37
40205;BME280;26963;42.666;23.366;2023-03-03T14:10:12;94782.13;;;9.12;61.83
40205;BME280;26963;42.666;23.366;2023-03-03T14:15:30;94787.00;;;9.05;62.67
40205;BME280;26963;42.666;23.366;2023-03-03T14:20:50;94769.75;;;8.97;62.95
40205;BME280;26963;42.666;23.366;2023-03-03T14:23:26;94765.31;;;8.88;63.05
40205;BME280;26963;42.666;23.366;2023-03-03T14:26:16;94778.28;;;9.00;62.84
40205;BME280;26963;42.666;23.366;2023-03-03T14:28:46;94775.09;;;8.97;62.66
40205;BME280;26963;42.666;23.366;2023-03-03T14:31:25;94774.56;;;8.95;63.01
40205;BME280;26963;42.666;23.366;2023-03-03T14:36:51;94758.31;;;8.73;63.35
40205;BME280;26963;42.666;23.366;2023-03-03T14:41:56;94692.13;;;8.26;64.24
40205;BME280;26963;42.666;23.366;2023-03-03T14:44:35;94758.03;;;8.74;63.77
40205;BME280;26963;42.666;23.366;2023-03-03T14:49:38;94756.19;;;8.70;63.68
40205;BME280;26963;42.666;23.366;2023-03-03T14:52:19;94767.34;;;8.77;63.50
40205;BME280;26963;42.666;23.366;2023-03-03T14:54:47;94696.88;;;8.29;64.05
40205;BME280;26963;42.666;23.366;2023-03-03T14:57:22;94750.63;;;8.66;63.88
40205;BME280;26963;42.666;23.366;2023-03-03T15:03:00;94712.81;;;8.35;65.02
40205;BME280;26963;42.666;23.366;2023-03-03T15:05:28;94698.13;;;8.37;64.54
40205;BME280;26963;42.666;23.366;2023-03-03T15:08:12;94736.06;;;8.58;64.60
40205;BME280;26963;42.666;23.366;2023-03-03T15:10:45;94779.06;;;8.76;65.10
40205;BME280;26963;42.666;23.366;2023-03-03T15:16:15;94764.59;;;8.82;65.14
40205;BME280;26963;42.666;23.366;2023-03-03T15:21:28;94688.38;;;8.27;64.63
40205;BME280;26963;42.666;23.366;2023-03-03T15:26:44;94776.34;;;8.81;65.34
40205;BME280;26963;42.666;23.366;2023-03-03T15:29:37;94763.78;;;8.81;65.19
40205;BME280;26963;42.666;23.366;2023-03-03T15:32:28;94767.28;;;8.82;65.21
40205;BME280;26963;42.666;23.366;2023-03-03T15:35:14;94732.31;;;8.59;65.47
40205;BME280;26963;42.666;23.366;2023-03-03T15:49:12;94726.31;;;8.43;65.20
40205;BME280;26963;42.666;23.366;2023-03-03T16:02:51;94739.38;;;8.45;65.21
40205;BME280;26963;42.666;23.366;2023-03-03T16:05:26;94766.16;;;8.64;64.85
40205;BME280;26963;42.666;23.366;2023-03-03T16:11:01;94783.88;;;8.74;65.52
40205;BME280;26963;42.666;23.366;2023-03-03T16:16:40;94791.44;;;8.67;65.14
40205;BME280;26963;42.666;23.366;2023-03-03T16:19:19;94765.53;;;8.43;65.56
40205;BME280;26963;42.666;23.366;2023-03-03T16:22:23;94812.78;;;8.67;65.34
40205;BME280;26963;42.666;23.366;2023-03-03T16:33:17;94801.31;;;8.66;64.82
40205;BME280;26963;42.666;23.366;2023-03-03T16:39:24;94812.91;;;8.51;65.70
40205;BME280;26963;42.666;23.366;2023-03-03T16:41:53;94809.22;;;8.47;66.26
40205;BME280;26963;42.666;23.366;2023-03-03T16:44:30;94816.69;;;8.45;66.73
40205;BME280;26963;42.666;23.366;2023-03-03T16:47:15;94747.38;;;7.86;66.23
40205;BME280;26963;42.666;23.366;2023-03-03T17:04:42;94843.31;;;8.55;66.30
40205;BME280;26963;42.666;23.366;2023-03-03T17:12:38;94725.81;;;7.82;65.55
40205;BME280;26963;42.666;23.366;2023-03-03T17:17:53;94843.59;;;8.48;65.57
40205;BME280;26963;42.666;23.366;2023-03-03T17:20:31;94817.00;;;8.38;66.15
40205;BME280;26963;42.666;23.366;2023-03-03T17:25:52;94858.97;;;8.62;65.90
40205;BME280;26963;42.666;23.366;2023-03-03T17:28:45;94813.47;;;8.19;66.12
40205;BME280;26963;42.666;23.366;2023-03-03T17:39:57;94793.22;;;8.18;65.67
40205;BME280;26963;42.666;23.366;2023-03-03T17:45:21;94845.44;;;8.53;65.43
40205;BME280;26963;42.666;23.366;2023-03-03T17:56:20;94884.19;;;8.75;66.37
40205;BME280;26963;42.666;23.366;2023-03-03T18:10:04;94899.34;;;8.79;65.74
40205;BME280;26963;42.666;23.366;2023-03-03T18:21:26;94909.72;;;8.81;65.95
40205;BME280;26963;42.666;23.366;2023-03-03T18:26:52;94763.19;;;7.72;65.37
40205;BME280;26963;42.666;23.366;2023-03-03T18:29:21;94891.69;;;8.73;65.80